sensor_id;sensor_type;location;lat;lon;timestamp;P1;durP1;ratioP1;P2;durP2;ratioP2
49340;SDS011;35209;51.050;13.678;2023-05-24T00:04:55;17.20;;;3.85;;
49340;SDS011;35209;51.050;13.678;2023-05-24T00:10:02;9.85;;;4.20;;
49340;SDS011;35209;51.050;13.678;2023-05-24T00:15:05;13.63;;;4.00;;
49340;SDS011;35209;51.050;13.678;2023-05-24T00:20:08;11.80;;;3.42;;
49340;SDS011;35209;51.050;13.678;2023-05-24T00:25:14;14.32;;;3.95;;
49340;SDS011;35209;51.050;13.678;2023-05-24T00:30:16;13.50;;;4.43;;
49340;SDS011;35209;51.050;13.678;2023-05-24T00:35:18;13.27;;;3.47;;
49340;SDS011;35209;51.050;13.678;2023-05-24T00:40:20;9.93;;;3.35;;
49340;SDS011;35209;51.050;13.678;2023-05-24T00:45:23;10.95;;;3.28;;
49340;SDS011;35209;51.050;13.678;2023-05-24T00:50:25;17.08;;;4.00;;
49340;SDS011;35209;51.050;13.678;2023-05-24T00:55:28;11.05;;;3.13;;
49340;SDS011;35209;51.050;13.678;2023-05-24T01:00:30;15.02;;;3.53;;
49340;SDS011;35209;51.050;13.678;2023-05-24T01:05:32;16.02;;;4.03;;
49340;SDS011;35209;51.050;13.678;2023-05-24T01:16:09;10.60;;;2.70;;
49340;SDS011;35209;51.050;13.678;2023-05-24T01:32:12;10.88;;;3.28;;
49340;SDS011;35209;51.050;13.678;2023-05-24T01:37:14;13.27;;;3.30;;
49340;SDS011;35209;51.050;13.678;2023-05-24T01:52:30;10.20;;;2.95;;
49340;SDS011;35209;51.050;13.678;2023-05-24T01:57:35;11.35;;;2.78;;
49340;SDS011;35209;51.050;13.678;2023-05-24T02:02:41;13.67;;;2.97;;
49340;SDS011;35209;51.050;13.678;2023-05-24T02:07:43;13.20;;;2.55;;
49340;SDS011;35209;51.050;13.678;2023-05-24T02:12:46;12.93;;;3.70;;
49340;SDS011;35209;51.050;13.678;2023-05-24T02:17:48;12.63;;;2.72;;
49340;SDS011;35209;51.050;13.678;2023-05-24T02:22:49;13.93;;;2.95;;
49340;SDS011;35209;51.050;13.678;2023-05-24T02:27:51;7.93;;;2.55;;
49340;SDS011;35209;51.050;13.678;2023-05-24T02:32:53;11.13;;;2.65;;
49340;SDS011;35209;51.050;13.678;2023-05-24T02:37:55;13.35;;;2.72;;
49340;SDS011;35209;51.050;13.678;2023-05-24T02:42:58;8.77;;;2.22;;
49340;SDS011;35209;51.050;13.678;2023-05-24T02:48:00;8.63;;;2.95;;
49340;SDS011;35209;51.050;13.678;2023-05-24T02:53:02;11.15;;;3.80;;
49340;SDS011;35209;51.050;13.678;2023-05-24T02:58:04;11.10;;;2.72;;
49340;SDS011;35209;51.050;13.678;2023-05-24T03:03:08;12.32;;;3.53;;
49340;SDS011;35209;51.050;13.678;2023-05-24T03:08:10;11.85;;;2.92;;
49340;SDS011;35209;51.050;13.678;2023-05-24T03:13:12;8.73;;;2.33;;
49340;SDS011;35209;51.050;13.678;2023-05-24T03:18:13;11.40;;;2.53;;
49340;SDS011;35209;51.050;13.678;2023-05-24T03:23:17;11.80;;;3.95;;
49340;SDS011;35209;51.050;13.678;2023-05-24T03:28:19;13.73;;;2.38;;
49340;SDS011;35209;51.050;13.678;2023-05-24T03:33:22;11.88;;;3.13;;
49340;SDS011;35209;51.050;13.678;2023-05-24T03:38:24;10.40;;;3.25;;
49340;SDS011;35209;51.050;13.678;2023-05-24T03:43:26;10.23;;;3.05;;
49340;SDS011;35209;51.050;13.678;2023-05-24T03:48:31;11.88;;;2.97;;
49340;SDS011;35209;51.050;13.678;2023-05-24T03:53:32;7.72;;;3.00;;
49340;SDS011;35209;51.050;13.678;2023-05-24T03:58:34;9.90;;;3.03;;
49340;SDS011;35209;51.050;13.678;2023-05-24T04:03:36;11.38;;;2.92;;
49340;SDS011;35209;51.050;13.678;2023-05-24T04:08:38;9.93;;;2.72;;
49340;SDS011;35209;51.050;13.678;2023-05-24T04:13:40;14.45;;;3.15;;
49340;SDS011;35209;51.050;13.678;2023-05-24T04:18:42;9.80;;;3.38;;
49340;SDS011;35209;51.050;13.678;2023-05-24T04:23:45;23.35;;;3.90;;
49340;SDS011;35209;51.050;13.678;2023-05-24T04:28:48;11.55;;;2.63;;
49340;SDS011;35209;51.050;13.678;2023-05-24T04:33:50;10.93;;;3.15;;
49340;SDS011;35209;51.050;13.678;2023-05-24T04:38:54;9.90;;;2.78;;
49340;SDS011;35209;51.050;13.678;2023-05-24T04:43:57;7.40;;;2.67;;
49340;SDS011;35209;51.050;13.678;2023-05-24T04:49:00;14.52;;;3.17;;
49340;SDS011;35209;51.050;13.678;2023-05-24T04:54:05;11.15;;;3.38;;
49340;SDS011;35209;51.050;13.678;2023-05-24T04:59:09;10.02;;;2.75;;
49340;SDS011;35209;51.050;13.678;2023-05-24T05:04:11;8.05;;;2.63;;
49340;SDS011;35209;51.050;13.678;2023-05-24T05:09:13;6.00;;;2.50;;
49340;SDS011;35209;51.050;13.678;2023-05-24T05:14:16;10.98;;;3.15;;
49340;SDS011;35209;51.050;13.678;2023-05-24T05:19:17;13.05;;;3.70;;
49340;SDS011;35209;51.050;13.678;2023-05-24T05:24:19;12.38;;;3.67;;
49340;SDS011;35209;51.050;13.678;2023-05-24T05:29:22;9.48;;;3.85;;
49340;SDS011;35209;51.050;13.678;2023-05-24T05:34:24;13.90;;;4.00;;
49340;SDS011;35209;51.050;13.678;2023-05-24T05:39:26;11.13;;;3.10;;
49340;SDS011;35209;51.050;13.678;2023-05-24T05:44:28;13.93;;;3.00;;
49340;SDS011;35209;51.050;13.678;2023-05-24T05:49:30;11.10;;;2.45;;
49340;SDS011;35209;51.050;13.678;2023-05-24T05:54:33;11.02;;;3.10;;
49340;SDS011;35209;51.050;13.678;2023-05-24T05:59:35;14.05;;;3.10;;
49340;SDS011;35209;51.050;13.678;2023-05-24T06:04:38;13.50;;;3.20;;
49340;SDS011;35209;51.050;13.678;2023-05-24T06:09:40;9.90;;;3.13;;
49340;SDS011;35209;51.050;13.678;2023-05-24T06:14:42;14.13;;;3.25;;
49340;SDS011;35209;51.050;13.678;2023-05-24T06:19:44;8.65;;;2.80;;
49340;SDS011;35209;51.050;13.678;2023-05-24T06:24:46;9.07;;;2.70;;
49340;SDS011;35209;51.050;13.678;2023-05-24T06:29:48;12.27;;;2.80;;
49340;SDS011;35209;51.050;13.678;2023-05-24T06:34:50;15.75;;;3.92;;
49340;SDS011;35209;51.050;13.678;2023-05-24T06:39:52;12.30;;;3.08;;
49340;SDS011;35209;51.050;13.678;2023-05-24T06:44:53;12.85;;;3.75;;
49340;SDS011;35209;51.050;13.678;2023-05-24T06:49:56;11.23;;;2.85;;
49340;SDS011;35209;51.050;13.678;2023-05-24T06:54:57;14.43;;;3.50;;
49340;SDS011;35209;51.050;13.678;2023-05-24T06:59:59;12.15;;;3.75;;
49340;SDS011;35209;51.050;13.678;2023-05-24T07:05:02;19.08;;;3.30;;
49340;SDS011;35209;51.050;13.678;2023-05-24T07:10:05;9.57;;;2.83;;
49340;SDS011;35209;51.050;13.678;2023-05-24T07:15:08;10.50;;;3.60;;
49340;SDS011;35209;51.050;13.678;2023-05-24T07:20:10;20.55;;;3.83;;
49340;SDS011;35209;51.050;13.678;2023-05-24T07:25:14;8.77;;;2.95;;
49340;SDS011;35209;51.050;13.678;2023-05-24T07:30:15;16.77;;;3.83;;
49340;SDS011;35209;51.050;13.678;2023-05-24T07:35:32;11.57;;;3.65;;
49340;SDS011;35209;51.050;13.678;2023-05-24T07:40:34;14.35;;;3.42;;
49340;SDS011;35209;51.050;13.678;2023-05-24T07:45:35;7.80;;;3.33;;
49340;SDS011;35209;51.050;13.678;2023-05-24T07:50:37;16.80;;;3.63;;
49340;SDS011;35209;51.050;13.678;2023-05-24T07:55:39;14.57;;;4.25;;
49340;SDS011;35209;51.050;13.678;2023-05-24T08:00:41;18.25;;;4.60;;
49340;SDS011;35209;51.050;13.678;2023-05-24T08:05:43;11.10;;;3.50;;
49340;SDS011;35209;51.050;13.678;2023-05-24T08:10:45;15.00;;;3.85;;
49340;SDS011;35209;51.050;13.678;2023-05-24T08:15:47;12.80;;;3.60;;
49340;SDS011;35209;51.050;13.678;2023-05-24T08:20:49;14.75;;;4.20;;
49340;SDS011;35209;51.050;13.678;2023-05-24T08:25:51;10.80;;;3.47;;
49340;SDS011;35209;51.050;13.678;2023-05-24T08:30:53;9.18;;;3.95;;
49340;SDS011;35209;51.050;13.678;2023-05-24T08:35:55;14.57;;;3.70;;
49340;SDS011;35209;51.050;13.678;2023-05-24T08:40:57;13.20;;;3.47;;
49340;SDS011;35209;51.050;13.678;2023-05-24T08:45:59;9.98;;;2.70;;
49340;SDS011;35209;51.050;13.678;2023-05-24T08:51:02;11.00;;;3.42;;
49340;SDS011;35209;51.050;13.678;2023-05-24T08:56:05;11.13;;;3.85;;
49340;SDS011;35209;51.050;13.678;2023-05-24T09:01:10;11.88;;;4.43;;
49340;SDS011;35209;51.050;13.678;2023-05-24T09:06:17;12.07;;;4.05;;
49340;SDS011;35209;51.050;13.678;2023-05-24T09:11:19;12.18;;;4.45;;
49340;SDS011;35209;51.050;13.678;2023-05-24T09:16:23;11.02;;;4.38;;
49340;SDS011;35209;51.050;13.678;2023-05-24T09:21:25;18.17;;;4.82;;
49340;SDS011;35209;51.050;13.678;2023-05-24T09:26:27;9.20;;;3.97;;
49340;SDS011;35209;51.050;13.678;2023-05-24T09:31:34;14.15;;;3.90;;
49340;SDS011;35209;51.050;13.678;2023-05-24T09:36:39;9.63;;;3.22;;
49340;SDS011;35209;51.050;13.678;2023-05-24T09:41:43;13.38;;;4.38;;
49340;SDS011;35209;51.050;13.678;2023-05-24T09:47:02;15.55;;;4.30;;
49340;SDS011;35209;51.050;13.678;2023-05-24T09:52:07;9.55;;;3.97;;
49340;SDS011;35209;51.050;13.678;2023-05-24T09:57:08;14.15;;;3.75;;
49340;SDS011;35209;51.050;13.678;2023-05-24T10:02:11;12.00;;;4.57;;
49340;SDS011;35209;51.050;13.678;2023-05-24T10:07:15;9.07;;;4.20;;
49340;SDS011;35209;51.050;13.678;2023-05-24T10:12:20;9.43;;;3.80;;
49340;SDS011;35209;51.050;13.678;2023-05-24T10:17:23;8.70;;;3.75;;
49340;SDS011;35209;51.050;13.678;2023-05-24T10:22:28;14.90;;;4.10;;
49340;SDS011;35209;51.050;13.678;2023-05-24T10:27:31;18.00;;;4.60;;
49340;SDS011;35209;51.050;13.678;2023-05-24T10:32:34;11.90;;;3.97;;
49340;SDS011;35209;51.050;13.678;2023-05-24T10:37:39;11.47;;;3.93;;
49340;SDS011;35209;51.050;13.678;2023-05-24T10:42:43;10.93;;;3.90;;
49340;SDS011;35209;51.050;13.678;2023-05-24T10:47:45;13.55;;;3.75;;
49340;SDS011;35209;51.050;13.678;2023-05-24T10:52:47;10.80;;;3.90;;
49340;SDS011;35209;51.050;13.678;2023-05-24T10:57:49;14.30;;;4.20;;
49340;SDS011;35209;51.050;13.678;2023-05-24T11:02:58;10.57;;;3.50;;
49340;SDS011;35209;51.050;13.678;2023-05-24T11:08:05;9.10;;;3.10;;
49340;SDS011;35209;51.050;13.678;2023-05-24T11:13:07;12.23;;;3.75;;
49340;SDS011;35209;51.050;13.678;2023-05-24T11:23:14;12.07;;;4.45;;
49340;SDS011;35209;51.050;13.678;2023-05-24T11:28:17;17.83;;;5.32;;
49340;SDS011;35209;51.050;13.678;2023-05-24T11:33:19;12.00;;;3.75;;
49340;SDS011;35209;51.050;13.678;2023-05-24T11:38:25;11.30;;;3.70;;
49340;SDS011;35209;51.050;13.678;2023-05-24T11:43:28;10.80;;;4.07;;
49340;SDS011;35209;51.050;13.678;2023-05-24T11:48:31;10.48;;;4.20;;
49340;SDS011;35209;51.050;13.678;2023-05-24T11:53:33;7.47;;;3.60;;
49340;SDS011;35209;51.050;13.678;2023-05-24T11:58:39;12.38;;;4.00;;
49340;SDS011;35209;51.050;13.678;2023-05-24T12:03:50;10.40;;;4.15;;
49340;SDS011;35209;51.050;13.678;2023-05-24T12:08:53;10.05;;;3.67;;
49340;SDS011;35209;51.050;13.678;2023-05-24T12:13:56;12.32;;;4.53;;
49340;SDS011;35209;51.050;13.678;2023-05-24T12:18:58;12.07;;;3.88;;
49340;SDS011;35209;51.050;13.678;2023-05-24T12:24:17;14.57;;;4.18;;
49340;SDS011;35209;51.050;13.678;2023-05-24T12:29:22;9.25;;;3.80;;
49340;SDS011;35209;51.050;13.678;2023-05-24T12:34:24;12.02;;;4.57;;
49340;SDS011;35209;51.050;13.678;2023-05-24T12:39:26;10.98;;;4.13;;
49340;SDS011;35209;51.050;13.678;2023-05-24T12:44:35;26.38;;;4.57;;
49340;SDS011;35209;51.050;13.678;2023-05-24T12:49:38;14.93;;;5.00;;
49340;SDS011;35209;51.050;13.678;2023-05-24T12:54:39;9.80;;;4.00;;
49340;SDS011;35209;51.050;13.678;2023-05-24T12:59:41;12.82;;;3.78;;
49340;SDS011;35209;51.050;13.678;2023-05-24T13:04:43;11.30;;;4.10;;
49340;SDS011;35209;51.050;13.678;2023-05-24T13:09:45;13.93;;;4.72;;
49340;SDS011;35209;51.050;13.678;2023-05-24T13:14:47;12.45;;;4.50;;
49340;SDS011;35209;51.050;13.678;2023-05-24T13:19:52;7.65;;;3.67;;
49340;SDS011;35209;51.050;13.678;2023-05-24T13:24:54;13.32;;;3.97;;
49340;SDS011;35209;51.050;13.678;2023-05-24T13:29:56;12.60;;;3.83;;
49340;SDS011;35209;51.050;13.678;2023-05-24T13:35:01;8.88;;;3.88;;
49340;SDS011;35209;51.050;13.678;2023-05-24T13:40:07;8.60;;;3.33;;
49340;SDS011;35209;51.050;13.678;2023-05-24T13:45:10;12.95;;;3.90;;
49340;SDS011;35209;51.050;13.678;2023-05-24T13:50:12;10.13;;;3.83;;
49340;SDS011;35209;51.050;13.678;2023-05-24T13:55:14;9.15;;;3.50;;
49340;SDS011;35209;51.050;13.678;2023-05-24T14:00:17;11.93;;;4.85;;
49340;SDS011;35209;51.050;13.678;2023-05-24T14:05:19;7.82;;;3.55;;
49340;SDS011;35209;51.050;13.678;2023-05-24T14:10:28;10.43;;;3.53;;
49340;SDS011;35209;51.050;13.678;2023-05-24T14:15:30;9.23;;;3.25;;
49340;SDS011;35209;51.050;13.678;2023-05-24T14:20:35;8.65;;;3.42;;
49340;SDS011;35209;51.050;13.678;2023-05-24T14:25:38;7.43;;;3.03;;
49340;SDS011;35209;51.050;13.678;2023-05-24T14:30:42;10.48;;;4.03;;
49340;SDS011;35209;51.050;13.678;2023-05-24T14:35:44;6.57;;;3.03;;
49340;SDS011;35209;51.050;13.678;2023-05-24T14:40:46;17.08;;;3.17;;
49340;SDS011;35209;51.050;13.678;2023-05-24T14:45:48;10.23;;;3.83;;
49340;SDS011;35209;51.050;13.678;2023-05-24T14:50:51;10.75;;;3.92;;
49340;SDS011;35209;51.050;13.678;2023-05-24T14:55:52;13.30;;;4.20;;
49340;SDS011;35209;51.050;13.678;2023-05-24T15:00:54;6.18;;;3.08;;
49340;SDS011;35209;51.050;13.678;2023-05-24T15:05:56;7.68;;;3.17;;
49340;SDS011;35209;51.050;13.678;2023-05-24T15:10:58;9.40;;;3.75;;
49340;SDS011;35209;51.050;13.678;2023-05-24T15:16:00;11.48;;;3.30;;
49340;SDS011;35209;51.050;13.678;2023-05-24T15:21:02;12.07;;;3.08;;
49340;SDS011;35209;51.050;13.678;2023-05-24T15:26:03;5.95;;;3.17;;
49340;SDS011;35209;51.050;13.678;2023-05-24T15:31:06;10.48;;;3.55;;
49340;SDS011;35209;51.050;13.678;2023-05-24T15:36:07;12.18;;;2.70;;
49340;SDS011;35209;51.050;13.678;2023-05-24T15:41:11;6.85;;;3.00;;
49340;SDS011;35209;51.050;13.678;2023-05-24T15:46:13;7.20;;;3.08;;
49340;SDS011;35209;51.050;13.678;2023-05-24T15:51:15;6.60;;;2.95;;
49340;SDS011;35209;51.050;13.678;2023-05-24T15:56:19;8.32;;;3.50;;
49340;SDS011;35209;51.050;13.678;2023-05-24T16:01:22;5.05;;;3.10;;
49340;SDS011;35209;51.050;13.678;2023-05-24T16:06:24;8.43;;;2.78;;
49340;SDS011;35209;51.050;13.678;2023-05-24T16:11:26;9.88;;;3.50;;
49340;SDS011;35209;51.050;13.678;2023-05-24T16:16:27;6.60;;;3.30;;
49340;SDS011;35209;51.050;13.678;2023-05-24T16:21:30;5.95;;;3.00;;
49340;SDS011;35209;51.050;13.678;2023-05-24T16:26:33;4.82;;;2.75;;
49340;SDS011;35209;51.050;13.678;2023-05-24T16:31:35;5.10;;;2.78;;
49340;SDS011;35209;51.050;13.678;2023-05-24T16:36:37;9.18;;;2.75;;
49340;SDS011;35209;51.050;13.678;2023-05-24T16:41:40;10.75;;;3.40;;
49340;SDS011;35209;51.050;13.678;2023-05-24T16:46:45;9.73;;;3.47;;
49340;SDS011;35209;51.050;13.678;2023-05-24T16:51:47;5.75;;;2.88;;
49340;SDS011;35209;51.050;13.678;2023-05-24T16:56:50;9.88;;;2.95;;
49340;SDS011;35209;51.050;13.678;2023-05-24T17:01:55;6.00;;;2.47;;
49340;SDS011;35209;51.050;13.678;2023-05-24T17:06:57;5.80;;;2.53;;
49340;SDS011;35209;51.050;13.678;2023-05-24T17:11:59;3.63;;;2.00;;
49340;SDS011;35209;51.050;13.678;2023-05-24T17:17:00;11.68;;;2.90;;
49340;SDS011;35209;51.050;13.678;2023-05-24T17:22:06;6.57;;;3.00;;
49340;SDS011;35209;51.050;13.678;2023-05-24T17:27:09;7.72;;;3.30;;
49340;SDS011;35209;51.050;13.678;2023-05-24T17:32:11;7.95;;;2.70;;
49340;SDS011;35209;51.050;13.678;2023-05-24T17:37:13;7.45;;;2.88;;
49340;SDS011;35209;51.050;13.678;2023-05-24T17:42:15;7.85;;;2.47;;
49340;SDS011;35209;51.050;13.678;2023-05-24T17:47:16;7.38;;;3.42;;
49340;SDS011;35209;51.050;13.678;2023-05-24T17:52:18;4.90;;;2.72;;
49340;SDS011;35209;51.050;13.678;2023-05-24T17:57:20;6.07;;;2.60;;
49340;SDS011;35209;51.050;13.678;2023-05-24T18:02:22;5.80;;;3.15;;
49340;SDS011;35209;51.050;13.678;2023-05-24T18:07:24;6.47;;;3.05;;
49340;SDS011;35209;51.050;13.678;2023-05-24T18:12:26;6.93;;;3.15;;
49340;SDS011;35209;51.050;13.678;2023-05-24T18:17:29;6.50;;;2.60;;
49340;SDS011;35209;51.050;13.678;2023-05-24T18:22:31;8.63;;;3.97;;
49340;SDS011;35209;51.050;13.678;2023-05-24T18:27:33;5.18;;;2.80;;
49340;SDS011;35209;51.050;13.678;2023-05-24T18:32:36;7.38;;;2.70;;
49340;SDS011;35209;51.050;13.678;2023-05-24T18:37:46;7.45;;;3.72;;
49340;SDS011;35209;51.050;13.678;2023-05-24T18:42:51;8.10;;;3.47;;
49340;SDS011;35209;51.050;13.678;2023-05-24T18:47:53;7.20;;;3.95;;
49340;SDS011;35209;51.050;13.678;2023-05-24T18:52:55;10.05;;;4.53;;
49340;SDS011;35209;51.050;13.678;2023-05-24T18:57:57;8.00;;;3.78;;
49340;SDS011;35209;51.050;13.678;2023-05-24T19:02:59;7.25;;;4.57;;
49340;SDS011;35209;51.050;13.678;2023-05-24T19:08:01;9.70;;;4.60;;
49340;SDS011;35209;51.050;13.678;2023-05-24T19:13:04;7.40;;;3.95;;
49340;SDS011;35209;51.050;13.678;2023-05-24T19:18:07;7.88;;;4.57;;
49340;SDS011;35209;51.050;13.678;2023-05-24T19:23:09;8.48;;;4.45;;
49340;SDS011;35209;51.050;13.678;2023-05-24T19:28:11;6.60;;;3.95;;
49340;SDS011;35209;51.050;13.678;2023-05-24T19:33:13;8.57;;;3.88;;
49340;SDS011;35209;51.050;13.678;2023-05-24T19:38:15;8.50;;;3.72;;
49340;SDS011;35209;51.050;13.678;2023-05-24T19:43:18;6.95;;;3.33;;
49340;SDS011;35209;51.050;13.678;2023-05-24T19:48:20;7.65;;;3.50;;
49340;SDS011;35209;51.050;13.678;2023-05-24T19:53:22;7.70;;;4.15;;
49340;SDS011;35209;51.050;13.678;2023-05-24T19:58:25;8.88;;;2.97;;
49340;SDS011;35209;51.050;13.678;2023-05-24T20:03:26;8.07;;;3.63;;
49340;SDS011;35209;51.050;13.678;2023-05-24T20:08:28;6.55;;;3.05;;
49340;SDS011;35209;51.050;13.678;2023-05-24T20:13:30;8.02;;;3.92;;
49340;SDS011;35209;51.050;13.678;2023-05-24T20:18:32;10.68;;;3.95;;
49340;SDS011;35209;51.050;13.678;2023-05-24T20:23:35;5.63;;;3.97;;
49340;SDS011;35209;51.050;13.678;2023-05-24T20:28:37;11.00;;;4.50;;
49340;SDS011;35209;51.050;13.678;2023-05-24T20:33:39;7.38;;;3.63;;
49340;SDS011;35209;51.050;13.678;2023-05-24T20:38:40;5.75;;;3.40;;
49340;SDS011;35209;51.050;13.678;2023-05-24T20:43:42;9.77;;;3.90;;
49340;SDS011;35209;51.050;13.678;2023-05-24T20:48:44;4.97;;;3.55;;
49340;SDS011;35209;51.050;13.678;2023-05-24T20:53:47;7.03;;;4.22;;
49340;SDS011;35209;51.050;13.678;2023-05-24T20:58:51;5.50;;;3.47;;
49340;SDS011;35209;51.050;13.678;2023-05-24T21:03:54;6.55;;;3.97;;
49340;SDS011;35209;51.050;13.678;2023-05-24T21:08:57;7.60;;;3.95;;
49340;SDS011;35209;51.050;13.678;2023-05-24T21:13:59;9.50;;;3.80;;
49340;SDS011;35209;51.050;13.678;2023-05-24T21:19:00;6.90;;;3.78;;
49340;SDS011;35209;51.050;13.678;2023-05-24T21:24:02;6.47;;;4.53;;
49340;SDS011;35209;51.050;13.678;2023-05-24T21:29:04;6.88;;;3.90;;
49340;SDS011;35209;51.050;13.678;2023-05-24T21:34:06;7.88;;;4.82;;
49340;SDS011;35209;51.050;13.678;2023-05-24T21:39:08;7.45;;;4.40;;
49340;SDS011;35209;51.050;13.678;2023-05-24T21:44:09;14.20;;;5.10;;
49340;SDS011;35209;51.050;13.678;2023-05-24T21:49:11;8.55;;;4.45;;
49340;SDS011;35209;51.050;13.678;2023-05-24T21:54:13;6.60;;;4.30;;
49340;SDS011;35209;51.050;13.678;2023-05-24T21:59:15;7.63;;;4.30;;
49340;SDS011;35209;51.050;13.678;2023-05-24T22:04:17;8.18;;;4.43;;
49340;SDS011;35209;51.050;13.678;2023-05-24T22:09:23;10.77;;;4.53;;
49340;SDS011;35209;51.050;13.678;2023-05-24T22:14:28;6.35;;;5.22;;
49340;SDS011;35209;51.050;13.678;2023-05-24T22:19:30;6.93;;;4.07;;
49340;SDS011;35209;51.050;13.678;2023-05-24T22:24:36;8.38;;;5.07;;
49340;SDS011;35209;51.050;13.678;2023-05-24T22:29:42;8.43;;;5.00;;
49340;SDS011;35209;51.050;13.678;2023-05-24T22:34:44;7.03;;;4.13;;
49340;SDS011;35209;51.050;13.678;2023-05-24T22:39:46;6.22;;;4.43;;
49340;SDS011;35209;51.050;13.678;2023-05-24T22:44:47;7.68;;;4.88;;
49340;SDS011;35209;51.050;13.678;2023-05-24T22:49:49;6.43;;;4.50;;
49340;SDS011;35209;51.050;13.678;2023-05-24T22:54:54;6.80;;;4.97;;
49340;SDS011;35209;51.050;13.678;2023-05-24T22:59:56;11.15;;;5.07;;
49340;SDS011;35209;51.050;13.678;2023-05-24T23:04:58;8.80;;;4.80;;
49340;SDS011;35209;51.050;13.678;2023-05-24T23:10:00;9.05;;;4.68;;
49340;SDS011;35209;51.050;13.678;2023-05-24T23:15:03;7.88;;;4.80;;
49340;SDS011;35209;51.050;13.678;2023-05-24T23:20:05;9.57;;;5.10;;
49340;SDS011;35209;51.050;13.678;2023-05-24T23:25:10;8.93;;;5.82;;
49340;SDS011;35209;51.050;13.678;2023-05-24T23:30:12;9.05;;;5.93;;
49340;SDS011;35209;51.050;13.678;2023-05-24T23:35:13;7.90;;;5.32;;
49340;SDS011;35209;51.050;13.678;2023-05-24T23:40:16;5.50;;;4.85;;
49340;SDS011;35209;51.050;13.678;2023-05-24T23:45:18;7.28;;;5.68;;
49340;SDS011;35209;51.050;13.678;2023-05-24T23:50:19;10.10;;;5.63;;
49340;SDS011;35209;51.050;13.678;2023-05-24T23:55:23;8.48;;;4.47;;
